Time;durP1;ratioP1;P1;durP2;ratioP2;P2;SDS_P1;SDS_P2;PMS_P1;PMS_P2;Temp;Humidity;BMP_temperature;BMP_pressure;BME280_temperature;BME280_humidity;BME280_pressure;Samples;Min_cycle;Max_cycle;Signal;HPM_P1;HPM_P2
2022/12/10 01:30:55;;;;;;;40.83;17.32;;;;;;;1.25;100.00;99758.31;1822426;77;28593;-63
2022/12/10 01:33:25;;;;;;;36.77;16.15;;;;;;;1.23;100.00;99773.31;1849363;77;21544;-64
2022/12/10 01:35:55;;;;;;;31.42;13.65;;;;;;;1.25;100.00;99767.76;1849432;77;21148;-65
2022/12/10 01:38:23;;;;;;;30.48;12.78;;;;;;;1.28;100.00;99764.75;1849614;77;21493;-63
2022/12/10 01:40:52;;;;;;;32.13;13.88;;;;;;;1.30;100.00;99757.85;1849336;77;21140;-62
2022/12/10 01:43:22;;;;;;;32.53;14.47;;;;;;;1.33;100.00;99750.33;1849449;77;21586;-64
2022/12/10 01:45:53;;;;;;;32.63;15.00;;;;;;;1.34;100.00;99750.67;1849453;77;21124;-65
2022/12/10 01:48:21;;;;;;;28.40;12.73;;;;;;;1.35;100.00;99756.42;1849292;77;21113;-64
2022/12/10 01:50:51;;;;;;;26.62;13.05;;;;;;;1.35;100.00;99751.52;1849219;77;21525;-63
2022/12/10 01:53:20;;;;;;;28.50;12.40;;;;;;;1.34;100.00;99746.62;1849347;77;21525;-63
2022/12/10 01:55:51;;;;;;;26.45;11.83;;;;;;;1.35;100.00;99742.92;1849788;77;21089;-62
2022/12/10 01:58:20;;;;;;;26.05;12.10;;;;;;;1.36;100.00;99725.73;1849320;77;21070;-63
2022/12/10 02:01:09;;;;;;;25.88;11.85;;;;;;;1.36;100.00;99718.98;1849336;76;21105;-65
2022/12/10 02:03:59;;;;;;;26.05;12.13;;;;;;;1.37;100.00;99716.63;1849430;77;21096;-68
2022/12/10 02:06:54;;;;;;;24.27;10.80;;;;;;;1.37;100.00;99727.42;1849384;76;21314;-65
2022/12/10 02:09:40;;;;;;;23.70;11.10;;;;;;;1.37;100.00;99712.58;1849334;77;21113;-64
2022/12/10 02:12:30;;;;;;;22.45;9.90;;;;;;;1.39;100.00;99704.33;1849386;76;21191;-65
2022/12/10 02:15:13;;;;;;;21.95;9.70;;;;;;;1.38;100.00;99703.48;1845711;76;21137;-64
2022/12/10 02:17:51;;;;;;;22.02;9.88;;;;;;;1.39;100.00;99702.48;1849554;76;21133;-63
2022/12/10 02:20:28;;;;;;;21.65;9.43;;;;;;;1.39;100.00;99697.08;1849328;76;21584;-64
2022/12/10 02:23:12;;;;;;;16.52;7.72;;;;;;;1.41;100.00;99704.52;1849598;77;21108;-63
2022/12/10 02:26:06;;;;;;;15.68;7.22;;;;;;;1.42;100.00;99702.66;1840576;77;21196;-63
2022/12/10 02:29:09;;;;;;;15.83;7.62;;;;;;;1.39;100.00;99695.73;1849281;76;21579;-64
2022/12/10 02:31:40;;;;;;;15.70;7.62;;;;;;;1.37;100.00;99686.09;1848850;76;21128;-64
2022/12/10 02:34:10;;;;;;;16.73;7.65;;;;;;;1.34;100.00;99676.46;1821669;77;21125;-64
2022/12/10 02:36:43;;;;;;;18.92;7.60;;;;;;;1.34;100.00;99672.41;1848764;76;21097;-64
2022/12/10 02:39:19;;;;;;;15.58;7.20;;;;;;;1.36;100.00;99670.41;1849137;77;21098;-63
2022/12/10 02:41:53;;;;;;;14.73;7.22;;;;;;;1.38;100.00;99676.99;1849070;77;21484;-64
2022/12/10 02:44:23;;;;;;;16.15;7.70;;;;;;;1.39;100.00;99672.79;1849051;77;21089;-63
2022/12/10 02:46:56;;;;;;;16.27;7.97;;;;;;;1.37;100.00;99668.05;1848835;77;21168;-63
2022/12/10 02:49:27;;;;;;;15.75;7.37;;;;;;;1.37;100.00;99671.25;1848847;77;21129;-62
2022/12/10 02:51:59;;;;;;;14.45;7.28;;;;;;;1.39;100.00;99676.84;1848761;77;21168;-62
2022/12/10 02:54:45;;;;;;;15.80;7.97;;;;;;;1.39;100.00;99681.39;1795890;77;21129;-63
2022/12/10 02:57:25;;;;;;;12.93;5.92;;;;;;;1.37;100.00;99680.70;1847489;76;21231;-63
2022/12/10 03:00:02;;;;;;;16.70;7.87;;;;;;;1.37;100.00;99676.65;1848869;77;21098;-63
2022/12/10 03:03:15;;;;;;;17.42;7.72;;;;;;;1.37;100.00;99677.50;1829288;77;21141;-63
2022/12/10 03:06:11;;;;;;;15.95;7.72;;;;;;;1.38;100.00;99681.05;1848901;76;21069;-63
2022/12/10 03:08:51;;;;;;;16.27;7.95;;;;;;;1.39;100.00;99667.89;1848945;76;21524;-63
2022/12/10 03:11:22;;;;;;;18.98;8.98;;;;;;;1.39;100.00;99665.20;1848588;77;21531;-62
2022/12/10 03:14:06;;;;;;;17.40;8.08;;;;;;;1.37;100.00;99658.61;1848581;77;21117;-65
2022/12/10 03:16:39;;;;;;;17.10;8.18;;;;;;;1.37;100.00;99651.86;1849137;76;21149;-64
2022/12/10 03:19:19;;;;;;;17.00;8.40;;;;;;;1.34;100.00;99647.28;1820083;77;21093;-62
2022/12/10 03:21:48;;;;;;;18.32;8.30;;;;;;;1.35;100.00;99649.82;1848748;76;21128;-63
2022/12/10 03:24:19;;;;;;;17.20;8.80;;;;;;;1.34;100.00;99642.73;1848974;77;21128;-65
2022/12/10 03:26:48;;;;;;;17.20;8.13;;;;;;;1.33;100.00;99642.38;1848626;76;21148;-64
2022/12/10 03:29:31;;;;;;;18.20;8.38;;;;;;;1.33;100.00;99634.29;1848548;77;21594;-64
2022/12/10 03:32:00;;;;;;;17.48;8.80;;;;;;;1.34;100.00;99628.39;1846625;78;21093;-62
2022/12/10 03:34:30;;;;;;;15.90;8.50;;;;;;;1.33;100.00;99625.34;1846881;78;21101;-62
2022/12/10 03:37:00;;;;;;;18.42;8.93;;;;;;;1.32;100.00;99627.20;1754924;82;21572;-62
2022/12/10 03:39:30;;;;;;;16.87;8.40;;;;;;;1.30;100.00;99629.20;1754939;82;21169;-61
2022/12/10 03:42:00;;;;;;;17.10;8.50;;;;;;;1.31;100.00;99620.61;1754907;82;21177;-63
2022/12/10 03:44:36;;;;;;;16.12;8.15;;;;;;;1.29;100.00;99616.69;1754932;82;21109;-63
2022/12/10 03:47:10;;;;;;;16.37;8.18;;;;;;;1.28;100.00;99624.44;1730882;82;21109;-62
2022/12/10 03:49:41;;;;;;;16.35;8.33;;;;;;;1.28;100.00;99621.23;1755013;82;21153;-63
2022/12/10 03:52:10;;;;;;;17.85;8.85;;;;;;;1.25;100.00;99604.02;1754921;82;21145;-64
2022/12/10 03:54:40;;;;;;;16.10;8.05;;;;;;;1.26;100.00;99612.95;1783467;78;21093;-64
2022/12/10 03:57:10;;;;;;;15.85;7.85;;;;;;;1.27;100.00;99607.40;1846727;78;21109;-63
2022/12/10 03:59:39;;;;;;;16.17;7.95;;;;;;;1.29;100.00;99601.84;1846839;77;21614;-64
2022/12/10 04:02:08;;;;;;;17.52;8.88;;;;;;;1.32;100.00;99597.52;1846578;77;21132;-63
2022/12/10 04:04:38;;;;;;;16.10;8.30;;;;;;;1.31;100.00;99596.33;1846865;77;21120;-64
2022/12/10 04:07:08;;;;;;;17.10;7.83;;;;;;;1.27;100.00;99585.81;1846893;78;21171;-63
2022/12/10 04:09:38;;;;;;;16.12;7.80;;;;;;;1.24;100.00;99578.03;1846678;78;21086;-65
2022/12/10 04:12:09;;;;;;;15.98;8.23;;;;;;;1.26;100.00;99583.27;1846734;77;21101;-64
2022/12/10 04:17:28;;;;;;;18.25;8.50;;;;;;;1.26;100.00;99585.97;1846691;78;21101;-64
2022/12/10 04:19:58;;;;;;;20.77;9.60;;;;;;;1.24;100.00;99590.17;1846963;76;21140;-63
2022/12/10 04:28:04;;;;;;;20.25;9.43;;;;;;;1.26;100.00;99560.34;1846937;78;21129;-64
2022/12/10 04:30:35;;;;;;;22.13;10.38;;;;;;;1.26;100.00;99558.98;1841275;76;21134;-65
2022/12/10 04:33:05;;;;;;;17.50;8.40;;;;;;;1.24;100.00;99555.10;1829452;78;21122;-63
2022/12/10 04:35:36;;;;;;;21.02;9.75;;;;;;;1.24;100.00;99547.52;1829359;78;21245;-62
2022/12/10 04:38:06;;;;;;;18.57;9.58;;;;;;;1.24;100.00;99562.34;1829317;78;21106;-63
2022/12/10 04:40:35;;;;;;;19.73;10.00;;;;;;;1.24;100.00;99547.52;1829467;78;21134;-63
2022/12/10 04:43:06;;;;;;;21.23;10.03;;;;;;;1.23;100.00;99544.47;1829415;78;21206;-63
2022/12/10 04:45:36;;;;;;;21.57;9.63;;;;;;;1.22;100.00;99537.38;1813210;78;21134;-63
2022/12/10 04:48:08;;;;;;;20.65;9.20;;;;;;;1.21;100.00;99532.48;1829575;78;21126;-66
2022/12/10 04:50:38;;;;;;;18.23;9.43;;;;;;;1.22;100.00;99533.33;1829622;78;21248;-64
2022/12/10 04:53:08;;;;;;;19.12;8.85;;;;;;;1.20;100.00;99532.64;1813483;78;21237;-64
2022/12/10 04:55:38;;;;;;;19.80;9.70;;;;;;;1.18;100.00;99525.21;1813220;78;21067;-65
2022/12/10 04:58:07;;;;;;;19.17;8.75;;;;;;;1.18;100.00;99519.81;1829451;78;21137;-66
2022/12/10 05:00:38;;;;;;;16.90;8.70;;;;;;;1.17;100.00;99519.48;1813396;78;21107;-64
2022/12/10 05:03:09;;;;;;;16.85;8.58;;;;;;;1.15;100.00;99516.94;1829473;78;21145;-64
2022/12/10 05:05:40;;;;;;;17.45;8.80;;;;;;;1.17;100.00;99505.98;1829506;78;21233;-64
2022/12/10 05:08:09;;;;;;;18.57;9.38;;;;;;;1.18;100.00;99500.43;1829510;78;21158;-65
2022/12/10 05:10:39;;;;;;;18.55;8.95;;;;;;;1.16;100.00;99493.00;1829317;77;21138;-65
2022/12/10 05:13:10;;;;;;;18.62;9.30;;;;;;;1.16;100.00;99499.75;1829326;78;21110;-63
2022/12/10 05:15:39;;;;;;;20.48;9.48;;;;;;;1.13;100.00;99496.02;1829512;78;21098;-64
2022/12/10 05:18:09;;;;;;;18.35;9.15;;;;;;;1.11;100.00;99489.94;1829604;78;21130;-64
2022/12/10 05:20:40;;;;;;;18.70;9.30;;;;;;;1.11;100.00;99487.73;1813750;78;21115;-64
2022/12/10 05:23:30;;;;;;;17.60;8.48;;;;;;;1.12;100.00;99487.58;1813180;78;21078;-63
2022/12/10 05:26:03;;;;;;;16.20;8.43;;;;;;;1.10;100.00;99478.80;1829468;78;21257;-63
2022/12/10 05:28:36;;;;;;;17.30;8.80;;;;;;;1.10;100.00;99488.75;1829454;78;21506;-63
2022/12/10 05:31:05;;;;;;;17.60;8.80;;;;;;;1.07;100.00;99487.72;1830591;78;21055;-63
2022/12/10 05:33:35;;;;;;;17.50;8.35;;;;;;;1.06;100.00;99487.38;1790072;78;21200;-64
2022/12/10 05:36:05;;;;;;;17.20;9.00;;;;;;;1.06;100.00;99490.07;1816050;78;21544;-63
2022/12/10 05:38:35;;;;;;;17.07;9.43;;;;;;;1.07;100.00;99503.91;1831907;78;21099;-63
2022/12/10 05:41:07;;;;;;;16.65;8.10;;;;;;;1.08;100.00;99485.36;1832026;78;21590;-63
2022/12/10 05:43:37;;;;;;;17.77;8.98;;;;;;;1.09;100.00;99483.01;1815988;78;21126;-64
2022/12/10 05:46:11;;;;;;;15.72;7.85;;;;;;;1.05;100.00;99482.98;1707422;83;21205;-63
2022/12/10 05:48:41;;;;;;;16.48;8.20;;;;;;;1.03;100.00;99469.66;1730881;83;21137;-67
2022/12/10 05:51:15;;;;;;;15.70;8.03;;;;;;;1.04;100.00;99470.00;1706736;83;21274;-66
2022/12/10 05:53:44;;;;;;;14.73;7.70;;;;;;;1.04;100.00;99468.66;1730788;83;21132;-63
2022/12/10 05:56:18;;;;;;;14.03;7.65;;;;;;;1.04;100.00;99471.85;1730892;83;21160;-64
2022/12/10 05:58:49;;;;;;;13.75;7.37;;;;;;;1.05;100.00;99462.76;1730991;81;21185;-65
2022/12/10 06:01:20;;;;;;;14.33;7.50;;;;;;;1.03;100.00;99460.72;1730948;83;21278;-65
2022/12/10 06:03:52;;;;;;;12.18;6.70;;;;;;;1.02;100.00;99461.73;1763791;78;21502;-66
2022/12/10 06:06:23;;;;;;;14.87;7.60;;;;;;;1.03;100.00;99461.56;1832139;78;21177;-65
2022/12/10 06:08:52;;;;;;;14.10;7.53;;;;;;;1.04;100.00;99461.06;1831852;78;21553;-66
2022/12/10 06:11:22;;;;;;;16.07;7.37;;;;;;;1.03;100.00;99458.02;1831939;78;21091;-64
2022/12/10 06:13:52;;;;;;;16.67;8.23;;;;;;;1.03;100.00;99453.98;1832105;78;21130;-64
2022/12/10 06:16:23;;;;;;;16.25;7.90;;;;;;;1.05;100.00;99450.62;1832011;78;21087;-64
2022/12/10 06:18:52;;;;;;;16.37;8.10;;;;;;;1.07;100.00;99445.91;1831919;78;21126;-66
2022/12/10 06:21:21;;;;;;;12.58;6.58;;;;;;;1.09;100.00;99443.90;1831809;78;21103;-63
2022/12/10 06:23:51;;;;;;;11.90;6.80;;;;;;;1.09;100.00;99449.30;1831826;77;21506;-64
2022/12/10 06:26:25;;;;;;;11.85;6.72;;;;;;;1.10;100.00;99451.83;1816112;78;21122;-66
2022/12/10 06:28:54;;;;;;;16.00;7.53;;;;;;;1.10;100.00;99448.28;1831928;78;21142;-65
2022/12/10 06:31:25;;;;;;;13.50;6.87;;;;;;;1.11;100.00;99431.94;1832053;77;21139;-66
2022/12/10 06:33:54;;;;;;;13.03;6.70;;;;;;;1.12;100.00;99444.92;1832011;77;21090;-66
2022/12/10 06:36:23;;;;;;;11.65;6.65;;;;;;;1.15;100.00;99450.00;1831947;77;21680;-64
2022/12/10 06:38:53;;;;;;;11.33;6.00;;;;;;;1.17;100.00;99444.78;1831793;78;21075;-65
2022/12/10 06:41:23;;;;;;;13.45;6.97;;;;;;;1.19;100.00;99450.02;1831917;78;21189;-63
2022/12/10 06:43:52;;;;;;;11.53;6.70;;;;;;;1.19;100.00;99441.42;1831893;78;21173;-64
2022/12/10 06:46:22;;;;;;;12.70;7.37;;;;;;;1.19;100.00;99450.02;1831890;78;21142;-64
2022/12/10 06:48:51;;;;;;;12.45;6.10;;;;;;;1.20;100.00;99445.81;1831956;78;21094;-65
2022/12/10 06:51:20;;;;;;;12.60;6.25;;;;;;;1.22;100.00;99449.70;1831976;78;21536;-65
2022/12/10 06:53:49;;;;;;;12.93;6.20;;;;;;;1.23;100.00;99454.09;1832006;78;21098;-64
2022/12/10 06:56:19;;;;;;;14.20;6.83;;;;;;;1.26;100.00;99442.97;1832165;78;21146;-64
2022/12/10 06:58:50;;;;;;;11.75;6.12;;;;;;;1.27;100.00;99440.61;1831875;78;21127;-64
2022/12/10 07:01:22;;;;;;;15.30;6.50;;;;;;;1.28;100.00;99437.75;1831925;78;21564;-65
2022/12/10 07:03:54;;;;;;;11.43;5.65;;;;;;;1.31;100.00;99440.66;1832016;78;21184;-65
2022/12/10 07:06:25;;;;;;;15.88;6.33;;;;;;;1.32;100.00;99434.77;1831906;78;21098;-64
2022/12/10 07:08:55;;;;;;;10.82;5.40;;;;;;;1.34;100.00;99434.94;1831913;78;21139;-63
2022/12/10 07:11:24;;;;;;;10.10;5.80;;;;;;;1.35;100.00;99424.98;1831961;78;21530;-66
2022/12/10 07:13:53;;;;;;;9.30;5.40;;;;;;;1.39;100.00;99422.31;1831869;77;21144;-65
2022/12/10 07:16:25;;;;;;;9.10;5.65;;;;;;;1.38;100.00;99412.02;1831883;78;21581;-63
2022/12/10 07:18:55;;;;;;;9.75;5.78;;;;;;;1.40;100.00;99415.40;1832007;78;21095;-66
2022/12/10 07:21:27;;;;;;;7.53;4.78;;;;;;;1.42;100.00;99409.84;1831946;78;21094;-64
2022/12/10 07:24:01;;;;;;;7.60;4.45;;;;;;;1.43;100.00;99404.28;1815961;78;21122;-65
2022/12/10 07:26:34;;;;;;;7.05;4.30;;;;;;;1.44;100.00;99391.13;1832317;78;21138;-63
2022/12/10 07:29:04;;;;;;;7.62;4.17;;;;;;;1.45;100.00;99402.26;1831879;78;21090;-66
2022/12/10 07:31:35;;;;;;;8.68;5.10;;;;;;;1.46;100.00;99375.61;1832002;78;21109;-65
2022/12/10 12:09:01;;;;;;;32.38;11.10;;;;;;;2.04;100.00;99162.65;1816858;77;24649;-56
2022/12/10 12:11:46;;;;;;;29.55;12.23;;;;;;;2.02;100.00;99158.44;1722614;83;21188;-55
2022/12/10 12:14:39;;;;;;;32.42;14.33;;;;;;;2.06;100.00;99161.97;1751949;82;21204;-54
2022/12/10 12:17:25;;;;;;;25.80;12.58;;;;;;;2.10;100.00;99158.41;1610248;83;21335;-64
2022/12/10 12:19:58;;;;;;;27.75;12.65;;;;;;;2.15;100.00;99167.67;1625245;87;21551;-63
2022/12/10 12:22:31;;;;;;;21.75;10.98;;;;;;;2.22;100.00;99161.91;1619494;88;21143;-64
2022/12/10 12:25:29;;;;;;;26.33;11.65;;;;;;;2.28;100.00;99166.28;1619444;88;21229;-64
2022/12/10 12:28:06;;;;;;;20.82;10.30;;;;;;;2.33;100.00;99162.03;1619469;88;21160;-70
2022/12/10 12:30:37;;;;;;;20.57;9.80;;;;;;;2.39;100.00;99169.44;1619602;88;21172;-66
2022/12/10 12:33:20;;;;;;;19.17;9.73;;;;;;;2.42;100.00;99159.62;1619417;88;21618;-64
2022/12/10 12:35:56;;;;;;;20.00;9.88;;;;;;;2.47;100.00;99161.29;1619328;87;21151;-65
2022/12/10 12:38:50;;;;;;;19.17;9.80;;;;;;;2.51;100.00;99161.78;1579124;91;21237;-65
2022/12/10 12:42:01;;;;;;;21.75;9.85;;;;;;;2.55;100.00;99168.02;1579723;91;21572;-67
2022/12/10 12:44:52;;;;;;;22.85;10.58;;;;;;;2.58;100.00;99168.16;1612107;89;21156;-66
2022/12/10 12:47:43;;;;;;;21.02;10.60;;;;;;;2.59;100.00;99159.55;1611991;89;21208;-64
2022/12/10 12:50:32;;;;;;;19.52;9.38;;;;;;;2.60;100.00;99159.88;1612263;89;21200;-65
2022/12/10 12:53:02;;;;;;;21.97;10.63;;;;;;;2.64;100.00;99150.42;1623165;87;21155;-66
2022/12/10 12:55:40;;;;;;;20.65;10.75;;;;;;;2.67;100.00;99152.27;1655457;87;21637;-66
2022/12/10 12:59:02;;;;;;;22.87;10.75;;;;;;;2.69;100.00;99155.63;1655657;87;21124;-65
2022/12/10 13:01:43;;;;;;;21.23;10.53;;;;;;;2.69;100.00;99154.79;1655552;87;21151;-65
2022/12/10 13:04:13;;;;;;;20.15;9.68;;;;;;;2.71;100.00;99160.86;1605956;88;21155;-65
2022/12/10 13:06:44;;;;;;;25.57;10.43;;;;;;;2.72;100.00;99159.33;1611957;89;21161;-66
2022/12/10 13:09:17;;;;;;;22.93;10.53;;;;;;;2.75;100.00;99158.97;1623693;86;21576;-65
